createdAt,value
2019-02-07T00:00:17.372Z,26.83
2019-02-07T00:02:43.906Z,25.87
2019-02-07T00:05:10.438Z,25.40
2019-02-07T00:07:36.976Z,24.37
2019-02-07T00:10:03.818Z,26.60
2019-02-07T00:12:30.352Z,28.70
2019-02-07T00:14:56.883Z,24.67
2019-02-07T00:17:23.420Z,26.40
2019-02-07T00:19:50.875Z,24.60
2019-02-07T00:22:17.512Z,26.07
2019-02-07T00:24:44.251Z,25.63
2019-02-07T00:27:11.094Z,26.33
2019-02-07T00:29:37.631Z,25.33
2019-02-07T00:32:04.226Z,25.63
2019-02-07T00:34:31.311Z,27.53
2019-02-07T00:36:58.462Z,26.83
2019-02-07T00:39:24.997Z,26.83
2019-02-07T00:41:51.835Z,25.43
2019-02-07T00:44:18.370Z,24.53
2019-02-07T00:46:45.214Z,25.17
2019-02-07T00:49:11.746Z,25.10
2019-02-07T00:51:38.286Z,26.67
2019-02-07T00:54:04.814Z,25.90
2019-02-07T00:56:31.965Z,24.60
2019-02-07T00:58:58.810Z,25.53
2019-02-07T01:01:25.647Z,25.97
2019-02-07T01:03:52.184Z,26.13
2019-02-07T01:06:19.023Z,25.67
2019-02-07T01:08:45.921Z,24.77
2019-02-07T01:11:12.706Z,26.67
2019-02-07T01:13:39.550Z,26.83
2019-02-07T01:16:06.083Z,25.80
2019-02-07T01:18:32.617Z,25.13
2019-02-07T01:20:59.459Z,25.23
2019-02-07T01:23:26.599Z,23.73
2019-02-07T01:25:53.143Z,23.77
2019-02-07T01:28:19.681Z,25.40
2019-02-07T01:30:46.223Z,23.77
2019-02-07T01:33:13.055Z,24.97
2019-02-07T01:35:39.894Z,25.13
2019-02-07T01:38:06.429Z,24.60
2019-02-07T01:40:33.271Z,25.93
2019-02-07T01:42:59.806Z,26.43
2019-02-07T01:45:26.357Z,25.83
2019-02-07T01:47:53.183Z,25.13
2019-02-07T01:50:20.023Z,23.30
2019-02-07T01:52:47.482Z,25.60
2019-02-07T01:55:14.015Z,25.33
2019-02-07T01:57:40.549Z,25.93
2019-02-07T02:00:07.392Z,25.03
2019-02-07T02:02:33.925Z,25.83
2019-02-07T02:05:00.480Z,24.50
2019-02-07T02:07:26.998Z,25.23
2019-02-07T02:09:53.528Z,24.93
2019-02-07T02:12:20.372Z,24.83
2019-02-07T02:14:46.895Z,26.07
2019-02-07T02:17:13.745Z,24.10
2019-02-07T02:19:40.281Z,24.93
2019-02-07T02:22:07.126Z,25.13
2019-02-07T02:24:34.027Z,24.07
2019-02-07T02:27:00.805Z,26.53
2019-02-07T02:29:27.340Z,24.90
2019-02-07T02:31:54.181Z,24.40
2019-02-07T02:34:20.716Z,24.00
2019-02-07T02:36:47.559Z,24.27
2019-02-07T02:39:14.399Z,23.13
2019-02-07T02:41:40.935Z,24.13
2019-02-07T02:44:07.824Z,23.47
2019-02-07T02:46:34.617Z,24.93
2019-02-07T02:49:01.459Z,24.10
2019-02-07T02:51:28.305Z,22.47
2019-02-07T02:53:54.835Z,23.60
2019-02-07T02:56:21.370Z,23.47
2019-02-07T02:58:48.212Z,24.47
2019-02-07T03:01:15.064Z,25.00
2019-02-07T03:03:41.591Z,23.97
2019-02-07T03:06:08.123Z,24.93
2019-02-07T03:08:35.275Z,23.53
2019-02-07T03:11:01.807Z,23.00
2019-02-07T03:13:28.649Z,24.50
2019-02-07T03:15:55.494Z,25.13
2019-02-07T03:18:22.023Z,26.50
2019-02-07T03:20:48.558Z,25.70
2019-02-07T03:23:15.399Z,24.00
2019-02-07T03:25:41.936Z,24.33
2019-02-07T03:28:09.082Z,27.23
2019-02-07T03:30:35.929Z,24.50
2019-02-07T03:33:02.463Z,26.10
2019-02-07T03:35:28.993Z,23.80
2019-02-07T03:37:55.536Z,25.10
2019-02-07T03:40:22.063Z,24.17
2019-02-07T03:42:48.601Z,24.40
2019-02-07T03:45:15.441Z,22.33
2019-02-07T03:47:42.281Z,23.67
2019-02-07T03:50:09.122Z,23.07
2019-02-07T03:52:35.660Z,24.40
2019-02-07T03:55:02.503Z,25.80
2019-02-07T03:57:29.032Z,25.27
2019-02-07T03:59:55.569Z,25.97
2019-02-07T04:02:22.408Z,26.23
2019-02-07T04:04:49.545Z,24.97
2019-02-07T04:07:16.091Z,25.57
2019-02-07T04:09:42.638Z,23.97
2019-02-07T04:12:09.164Z,26.50
2019-02-07T04:14:36.005Z,26.53
2019-02-07T04:17:02.540Z,26.17
2019-02-07T04:19:29.380Z,26.47
2019-02-07T04:21:55.927Z,25.53
2019-02-07T04:24:23.371Z,28.20
2019-02-07T04:26:50.213Z,26.67
2019-02-07T04:29:16.746Z,26.17
2019-02-07T04:31:43.280Z,26.73
2019-02-07T04:34:09.818Z,26.43
2019-02-07T04:36:36.656Z,25.80
2019-02-07T04:39:03.191Z,29.13
2019-02-07T04:41:29.725Z,27.47
2019-02-07T04:43:56.262Z,27.70
2019-02-07T04:46:27.233Z,26.20
2019-02-07T04:48:51.180Z,27.37
2019-02-07T04:51:18.024Z,27.37
2019-02-07T04:53:44.855Z,27.07
2019-02-07T04:56:11.390Z,26.83
2019-02-07T04:58:38.237Z,28.57
2019-02-07T05:01:05.074Z,27.73
2019-02-07T05:03:31.915Z,27.63
2019-02-07T05:05:58.449Z,26.57
2019-02-07T05:08:24.983Z,26.70
2019-02-07T05:10:51.518Z,27.77
2019-02-07T05:13:18.360Z,27.57
2019-02-07T05:15:45.200Z,26.20
2019-02-07T05:18:11.736Z,27.27
2019-02-07T05:20:39.208Z,27.83
2019-02-07T05:23:05.729Z,27.83
2019-02-07T05:25:32.262Z,26.43
2019-02-07T05:27:59.115Z,27.90
2019-02-07T05:30:25.642Z,28.43
2019-02-07T05:32:52.177Z,27.27
2019-02-07T05:35:18.690Z,26.77
2019-02-07T05:37:45.243Z,26.83
2019-02-07T05:40:12.168Z,30.67
2019-02-07T05:42:38.932Z,31.23
2019-02-07T05:45:05.461Z,30.50
2019-02-07T05:47:32.031Z,29.53
2019-02-07T05:49:58.631Z,29.17
2019-02-07T05:52:25.680Z,31.10
2019-02-07T05:54:52.212Z,33.97
2019-02-07T05:57:18.746Z,30.63
2019-02-07T05:59:45.589Z,32.17
2019-02-07T06:02:12.429Z,31.83
2019-02-07T06:04:39.271Z,29.53
2019-02-07T06:07:05.806Z,30.33
2019-02-07T06:09:32.340Z,29.30
2019-02-07T06:11:59.101Z,29.57
2019-02-07T06:14:26.011Z,29.97
2019-02-07T06:17:02.326Z,30.57
2019-02-07T06:19:20.935Z,30.83
2019-02-07T06:21:48.251Z,30.83
2019-02-07T06:24:15.544Z,30.90
2019-02-07T06:26:42.077Z,28.57
2019-02-07T06:29:08.916Z,28.23
2019-02-07T06:31:35.450Z,28.37
2019-02-07T06:34:02.294Z,30.30
2019-02-07T06:36:29.137Z,28.73
2019-02-07T06:38:55.980Z,28.87
2019-02-07T06:41:22.516Z,27.17
2019-02-07T06:43:49.053Z,29.33
2019-02-07T06:46:15.886Z,27.53
2019-02-07T06:48:42.424Z,29.60
2019-02-07T06:51:08.955Z,28.07
2019-02-07T06:53:35.796Z,27.93
2019-02-07T06:56:02.641Z,26.83
2019-02-07T06:58:29.177Z,27.80
2019-02-07T07:00:55.710Z,29.10
2019-02-07T07:03:22.246Z,27.30
2019-02-07T07:05:49.088Z,27.20
2019-02-07T07:08:15.926Z,27.27
2019-02-07T07:10:42.463Z,27.13
2019-02-07T07:13:09.611Z,27.70
2019-02-07T07:15:36.450Z,26.10
2019-02-07T07:18:02.985Z,24.73
2019-02-07T07:20:29.519Z,26.93
2019-02-07T07:22:56.055Z,26.20
2019-02-07T07:25:22.691Z,26.83
2019-02-07T07:27:49.432Z,26.63
2019-02-07T07:30:16.891Z,25.10
2019-02-07T07:32:43.421Z,25.23
2019-02-07T07:35:09.956Z,25.30
2019-02-07T07:37:38.989Z,24.27
2019-02-07T07:40:04.867Z,24.07
2019-02-07T07:42:31.402Z,24.33
2019-02-07T07:44:57.940Z,23.77
2019-02-07T07:47:35.378Z,23.10
2019-02-07T07:49:52.851Z,24.20
2019-02-07T07:52:19.700Z,23.90
2019-02-07T07:54:46.224Z,25.03
2019-02-07T07:57:13.108Z,24.13
2019-02-07T07:59:39.907Z,22.87
2019-02-07T08:02:06.443Z,24.13
2019-02-07T08:04:33.386Z,25.10
2019-02-07T08:07:00.740Z,23.83
2019-02-07T08:09:27.279Z,24.13
2019-02-07T08:11:54.119Z,23.00
2019-02-07T08:14:20.650Z,22.73
2019-02-07T08:16:47.187Z,22.37
2019-02-07T08:19:14.026Z,22.30
2019-02-07T08:21:40.562Z,23.30
2019-02-07T08:24:07.096Z,23.40
2019-02-07T08:26:33.632Z,21.97
2019-02-07T08:29:00.475Z,22.33
2019-02-07T08:31:27.318Z,22.97
2019-02-07T08:33:54.155Z,21.90
2019-02-07T08:36:20.690Z,20.53
2019-02-07T08:38:49.786Z,21.33
2019-02-07T08:41:15.604Z,21.87
2019-02-07T08:43:43.059Z,23.80
2019-02-07T08:46:09.592Z,22.27
2019-02-07T08:48:36.132Z,23.30
2019-02-07T08:51:02.661Z,21.30
2019-02-07T08:53:29.200Z,20.90
2019-02-07T08:55:56.038Z,21.57
2019-02-07T08:58:22.882Z,23.30
2019-02-07T09:00:49.720Z,21.87
2019-02-07T09:03:16.868Z,20.53
2019-02-07T09:05:43.426Z,19.60
2019-02-07T09:08:10.246Z,20.23
2019-02-07T09:10:36.779Z,21.60
2019-02-07T09:13:03.325Z,19.53
2019-02-07T09:15:29.851Z,18.03
2019-02-07T09:17:56.674Z,17.57
2019-02-07T09:20:23.840Z,18.17
2019-02-07T09:22:50.375Z,17.10
2019-02-07T09:25:16.912Z,18.57
2019-02-07T09:27:43.750Z,18.13
2019-02-07T09:30:10.294Z,17.70
2019-02-07T09:32:37.126Z,16.73
2019-02-07T09:35:03.969Z,17.40
2019-02-07T09:37:30.503Z,17.13
2019-02-07T09:39:57.654Z,16.33
2019-02-07T09:42:24.493Z,17.37
2019-02-07T09:44:51.334Z,16.00
2019-02-07T09:47:17.868Z,16.77
2019-02-07T09:49:44.404Z,17.37
2019-02-07T09:52:10.938Z,15.67
2019-02-07T09:54:37.472Z,16.33
2019-02-07T09:57:04.313Z,16.50
2019-02-07T09:59:31.039Z,14.47
2019-02-07T10:01:57.693Z,15.53
2019-02-07T10:04:24.224Z,16.60
2019-02-07T10:06:50.760Z,16.00
2019-02-07T10:09:17.582Z,15.23
2019-02-07T10:11:44.134Z,15.03
2019-02-07T10:14:10.754Z,15.43
2019-02-07T10:16:37.820Z,15.03
2019-02-07T10:19:04.351Z,15.03
2019-02-07T10:21:31.194Z,15.43
2019-02-07T10:23:57.732Z,14.40
2019-02-07T10:26:24.263Z,14.60
2019-02-07T10:28:51.106Z,14.87
2019-02-07T10:31:17.953Z,15.20
2019-02-07T10:33:44.787Z,13.87
2019-02-07T10:36:11.937Z,14.33
2019-02-07T10:38:38.476Z,13.30
2019-02-07T10:41:05.303Z,14.13
2019-02-07T10:43:32.253Z,13.67
2019-02-07T10:45:59.305Z,13.83
2019-02-07T10:48:26.702Z,13.47
2019-02-07T10:50:53.601Z,12.97
2019-02-07T10:53:20.135Z,13.30
2019-02-07T10:55:46.698Z,13.20
2019-02-07T10:58:13.511Z,12.73
2019-02-07T11:00:40.057Z,13.13
2019-02-07T11:03:06.888Z,12.70
2019-02-07T11:05:33.422Z,13.40
2019-02-07T11:08:00.264Z,12.23
2019-02-07T11:10:27.105Z,12.70
2019-02-07T11:12:54.564Z,13.37
2019-02-07T11:15:21.402Z,13.47
2019-02-07T11:17:48.244Z,11.87
2019-02-07T11:20:15.205Z,12.90
2019-02-07T11:22:41.938Z,13.37
2019-02-07T11:25:08.468Z,12.83
2019-02-07T11:27:34.998Z,11.77
2019-02-07T11:30:02.453Z,11.20
2019-02-07T11:32:28.986Z,12.33
2019-02-07T11:34:55.833Z,11.53
2019-02-07T11:37:22.365Z,12.23
2019-02-07T11:39:49.204Z,11.73
2019-02-07T11:42:15.739Z,10.63
2019-02-07T11:44:43.106Z,11.60
2019-02-07T11:47:09.757Z,10.67
2019-02-07T11:49:36.898Z,10.97
2019-02-07T11:52:03.415Z,13.33
2019-02-07T11:54:30.260Z,23.17
2019-02-07T11:56:56.978Z,23.23
2019-02-07T11:59:23.631Z,23.37
2019-02-07T12:01:50.166Z,24.10
2019-02-07T12:04:17.128Z,23.80
2019-02-07T12:06:44.159Z,23.40
2019-02-07T12:09:10.692Z,21.17
2019-02-07T12:11:37.531Z,24.57
2019-02-07T12:14:04.066Z,25.90
2019-02-07T12:16:30.602Z,26.07
2019-02-07T12:18:57.440Z,26.27
2019-02-07T12:21:23.977Z,29.13
2019-02-07T12:23:50.819Z,24.83
2019-02-07T12:26:17.659Z,30.20
2019-02-07T12:28:44.194Z,28.40
2019-02-07T12:31:10.730Z,29.77
2019-02-07T12:33:37.571Z,30.17
2019-02-07T12:36:04.411Z,30.37
2019-02-07T12:38:30.947Z,22.43
2019-02-07T12:40:57.482Z,20.37
2019-02-07T12:43:24.322Z,21.40
2019-02-07T12:45:51.165Z,19.90
2019-02-07T12:48:18.006Z,20.73
2019-02-07T12:50:44.541Z,19.23
2019-02-07T12:53:11.074Z,19.93
2019-02-07T12:55:37.917Z,18.73
2019-02-07T12:58:04.456Z,17.90
2019-02-07T13:00:31.292Z,17.63
2019-02-07T13:02:58.441Z,17.97
2019-02-07T13:05:24.978Z,18.00
2019-02-07T13:07:51.511Z,16.43
2019-02-07T13:10:18.047Z,17.87
2019-02-07T13:12:44.909Z,17.93
2019-02-07T13:15:11.755Z,17.40
2019-02-07T13:17:38.570Z,16.57
2019-02-07T13:20:06.044Z,15.97
2019-02-07T13:22:32.594Z,15.03
2019-02-07T13:24:59.425Z,16.10
2019-02-07T13:27:26.289Z,15.77
2019-02-07T13:29:53.132Z,15.80
2019-02-07T13:32:19.933Z,15.27
2019-02-07T13:34:46.489Z,14.80
2019-02-07T13:37:13.091Z,14.10
2019-02-07T13:39:40.150Z,14.10
2019-02-07T13:42:06.986Z,13.30
2019-02-07T13:44:33.521Z,13.40
2019-02-07T13:47:00.362Z,12.67
2019-02-07T13:49:27.204Z,12.03
2019-02-07T13:51:53.739Z,12.47
2019-02-07T13:54:20.581Z,12.70
2019-02-07T13:56:47.742Z,12.13
2019-02-07T13:59:14.571Z,12.47
2019-02-07T14:01:41.418Z,11.10
2019-02-07T14:04:08.255Z,12.57
2019-02-07T14:06:35.100Z,15.03
2019-02-07T14:09:01.631Z,20.70
2019-02-07T14:11:28.471Z,28.60
2019-02-07T14:13:55.314Z,40.30
2019-02-07T14:16:22.157Z,47.80
2019-02-07T14:18:48.690Z,52.20
2019-02-07T14:21:15.229Z,52.20
2019-02-07T14:23:41.759Z,50.33
2019-02-07T14:26:08.601Z,48.87
2019-02-07T14:28:35.138Z,44.10
2019-02-07T14:31:01.977Z,44.67
2019-02-07T14:33:28.827Z,39.73
2019-02-07T14:35:55.667Z,40.23
2019-02-07T14:38:22.500Z,37.33
2019-02-07T14:40:49.037Z,35.10
2019-02-07T14:43:15.579Z,33.67
2019-02-07T14:45:42.105Z,33.53
2019-02-07T14:48:08.643Z,31.77
2019-02-07T14:50:35.782Z,31.07
2019-02-07T14:53:02.938Z,29.57
2019-02-07T14:55:29.471Z,27.50
2019-02-07T14:57:56.006Z,27.50
2019-02-07T15:00:22.846Z,26.83
2019-02-07T15:02:49.687Z,25.70
2019-02-07T15:05:16.223Z,24.67
2019-02-07T15:07:42.786Z,23.00
2019-02-07T15:10:09.599Z,23.33
2019-02-07T15:12:36.748Z,22.83
2019-02-07T15:15:03.592Z,22.90
2019-02-07T15:17:30.124Z,20.17
2019-02-07T15:19:56.966Z,21.17
2019-02-07T15:22:23.809Z,20.30
2019-02-07T15:24:50.341Z,20.27
2019-02-07T15:27:17.183Z,20.10
2019-02-07T15:29:43.721Z,19.07
2019-02-07T15:32:10.559Z,18.63
2019-02-07T15:34:37.099Z,17.00
2019-02-07T15:37:03.938Z,17.57
2019-02-07T15:39:31.391Z,16.57
2019-02-07T15:41:57.929Z,16.63
2019-02-07T15:44:24.771Z,15.67
2019-02-07T15:46:51.302Z,15.27
2019-02-07T15:49:17.840Z,15.40
2019-02-07T15:51:44.988Z,15.50
2019-02-07T15:54:11.521Z,15.20
2019-02-07T15:56:38.363Z,14.83
2019-02-07T15:59:05.203Z,14.97
2019-02-07T16:01:31.738Z,13.83
2019-02-07T16:03:58.586Z,14.60
2019-02-07T16:06:25.440Z,13.70
2019-02-07T16:08:51.955Z,13.10
2019-02-07T16:11:18.491Z,13.53
2019-02-07T16:13:45.027Z,13.40
2019-02-07T16:16:11.867Z,12.23
2019-02-07T16:18:38.708Z,13.37
2019-02-07T16:21:05.245Z,13.70
2019-02-07T16:23:31.776Z,12.37
2019-02-07T16:25:58.311Z,15.10
2019-02-07T16:28:25.180Z,13.80
2019-02-07T16:30:51.690Z,13.37
2019-02-07T16:33:18.222Z,12.57
2019-02-07T16:35:44.759Z,13.10
2019-02-07T16:38:11.296Z,13.60
2019-02-07T16:40:38.133Z,14.53
2019-02-07T16:43:04.672Z,14.30
2019-02-07T16:45:31.508Z,12.87
2019-02-07T16:47:58.669Z,13.07
2019-02-07T16:50:25.192Z,14.80
2019-02-07T16:52:51.730Z,12.80
2019-02-07T16:55:18.263Z,13.07
2019-02-07T16:57:45.103Z,15.07
2019-02-07T17:00:11.637Z,14.43
2019-02-07T17:02:38.176Z,14.37
2019-02-07T17:05:05.014Z,14.20
2019-02-07T17:07:32.162Z,15.57
2019-02-07T17:09:58.698Z,15.63
2019-02-07T17:12:25.234Z,15.20
2019-02-07T17:14:51.770Z,16.43
2019-02-07T17:17:18.613Z,14.90
2019-02-07T17:19:45.142Z,14.07
2019-02-07T17:22:11.985Z,15.73
2019-02-07T17:24:38.520Z,13.77
2019-02-07T17:27:05.361Z,15.77
2019-02-07T17:29:31.895Z,16.03
2019-02-07T17:31:58.414Z,15.03
2019-02-07T17:34:25.285Z,16.50
2019-02-07T17:36:51.806Z,15.07
2019-02-07T17:39:18.338Z,16.20
2019-02-07T17:41:45.181Z,14.77
2019-02-07T17:44:12.022Z,15.50
2019-02-07T17:46:39.174Z,15.00
2019-02-07T17:49:05.706Z,15.20
2019-02-07T17:51:32.547Z,15.27
2019-02-07T17:53:59.085Z,16.13
2019-02-07T17:56:25.619Z,15.50
2019-02-07T17:58:52.152Z,16.00
2019-02-07T18:01:18.992Z,15.97
2019-02-07T18:03:46.448Z,17.23
2019-02-07T18:06:13.290Z,13.97
2019-02-07T18:08:40.134Z,15.63
2019-02-07T18:11:06.976Z,16.87
2019-02-07T18:13:33.520Z,16.03
2019-02-07T18:16:01.274Z,16.80
2019-02-07T18:18:28.112Z,15.50
2019-02-07T18:20:54.955Z,15.83
2019-02-07T18:23:21.489Z,16.83
2019-02-07T18:25:48.641Z,16.50
2019-02-07T18:28:15.485Z,16.70
2019-02-07T18:30:42.017Z,17.60
2019-02-07T18:33:08.858Z,18.20
2019-02-07T18:35:35.394Z,15.63
2019-02-07T18:38:02.235Z,17.00
2019-02-07T18:40:29.078Z,16.87
2019-02-07T18:42:55.921Z,16.47
2019-02-07T18:45:22.450Z,15.87
2019-02-07T18:47:49.292Z,16.17
2019-02-07T18:50:16.325Z,16.73
2019-02-07T18:52:43.085Z,15.67
2019-02-07T18:55:10.139Z,15.30
2019-02-07T18:57:36.662Z,16.57
2019-02-07T19:00:03.810Z,16.27
2019-02-07T19:02:30.649Z,17.37
2019-02-07T19:04:57.495Z,17.13
2019-02-07T19:07:24.351Z,17.63
2019-02-07T19:09:51.176Z,17.40
2019-02-07T19:12:18.030Z,16.57
2019-02-07T19:14:44.874Z,17.23
2019-02-07T19:17:11.481Z,18.13
2019-02-07T19:19:38.235Z,18.40
2019-02-07T19:22:04.767Z,18.40
2019-02-07T19:24:31.917Z,17.67
2019-02-07T19:26:58.454Z,18.97
2019-02-07T19:29:24.986Z,18.67
2019-02-07T19:31:51.832Z,18.17
2019-02-07T19:34:18.361Z,18.87
2019-02-07T19:36:45.203Z,20.13
2019-02-07T19:39:12.052Z,18.10
2019-02-07T19:41:38.580Z,20.20
2019-02-07T19:44:05.421Z,21.60
2019-02-07T19:46:32.558Z,19.47
2019-02-07T19:48:59.105Z,21.57
2019-02-07T19:51:25.643Z,19.67
2019-02-07T19:53:52.482Z,23.03
2019-02-07T19:56:19.015Z,20.90
2019-02-07T19:58:45.572Z,22.43
2019-02-07T20:01:12.564Z,22.70
2019-02-07T20:03:39.553Z,23.33
2019-02-07T20:06:06.075Z,21.47
2019-02-07T20:08:32.920Z,23.37
2019-02-07T20:10:59.454Z,24.87
2019-02-07T20:13:26.298Z,20.57
2019-02-07T20:15:53.136Z,22.53
2019-02-07T20:18:19.675Z,23.90
2019-02-07T20:20:46.512Z,23.30
2019-02-07T20:23:13.667Z,25.93
2019-02-07T20:25:40.808Z,27.53
2019-02-07T20:28:07.348Z,25.20
2019-02-07T20:30:34.183Z,26.83
2019-02-07T20:33:00.947Z,26.47
2019-02-07T20:35:27.564Z,30.40
2019-02-07T20:37:54.997Z,25.97
2019-02-07T20:40:21.763Z,27.70
2019-02-07T20:42:48.392Z,25.57
2019-02-07T20:45:15.238Z,27.73
2019-02-07T20:47:43.829Z,27.70
2019-02-07T20:50:10.761Z,27.57
2019-02-07T20:52:37.604Z,30.47
2019-02-07T20:55:04.948Z,27.73
2019-02-07T20:57:32.972Z,29.53
2019-02-07T20:59:59.988Z,29.50
2019-02-07T21:02:27.474Z,30.47
2019-02-07T21:04:54.269Z,29.87
2019-02-07T21:07:21.413Z,32.33
2019-02-07T21:09:48.273Z,27.93
2019-02-07T21:12:15.102Z,31.23
2019-02-07T21:14:42.026Z,30.70
2019-02-07T21:17:08.787Z,31.73
2019-02-07T21:19:35.319Z,29.87
2019-02-07T21:22:02.150Z,30.07
2019-02-07T21:24:28.694Z,31.60
2019-02-07T21:26:56.151Z,31.20
2019-02-07T21:29:23.340Z,29.43
2019-02-07T21:31:51.394Z,30.30
2019-02-07T21:34:19.886Z,28.97
2019-02-07T21:36:47.204Z,32.47
2019-02-07T21:39:14.868Z,30.30
2019-02-07T21:41:41.806Z,30.37
2019-02-07T21:44:09.263Z,29.13
2019-02-07T21:46:36.107Z,30.97
2019-02-07T21:49:02.639Z,31.07
2019-02-07T21:51:29.480Z,31.30
2019-02-07T21:53:56.016Z,32.87
2019-02-07T21:56:22.857Z,32.37
2019-02-07T21:58:49.721Z,30.23
2019-02-07T22:01:16.243Z,32.30
2019-02-07T22:03:42.770Z,31.00
2019-02-07T22:06:09.612Z,32.77
2019-02-07T22:08:36.454Z,31.37
2019-02-07T22:11:02.990Z,30.17
2019-02-07T22:13:29.828Z,31.63
2019-02-07T22:15:56.669Z,30.87
2019-02-07T22:18:23.603Z,32.37
2019-02-07T22:20:50.353Z,33.63
2019-02-07T22:23:16.887Z,30.23
2019-02-07T22:25:43.732Z,30.77
2019-02-07T22:28:10.879Z,33.87
2019-02-07T22:30:37.722Z,33.40
2019-02-07T22:33:04.255Z,32.73
2019-02-07T22:35:31.096Z,33.13
2019-02-07T22:37:57.937Z,31.60
2019-02-07T22:40:24.471Z,31.43
2019-02-07T22:42:51.317Z,30.23
2019-02-07T22:45:17.850Z,29.67
2019-02-07T22:47:45.003Z,27.97
2019-02-07T22:50:11.840Z,28.57
2019-02-07T22:52:38.672Z,28.23
2019-02-07T22:55:05.215Z,29.93
2019-02-07T22:57:32.046Z,29.47
2019-02-07T22:59:58.592Z,29.80
2019-02-07T23:02:25.138Z,27.83
2019-02-07T23:04:51.971Z,28.73
2019-02-07T23:07:18.842Z,26.80
2019-02-07T23:09:45.651Z,29.10
2019-02-07T23:12:12.494Z,30.30
2019-02-07T23:14:39.032Z,27.03
2019-02-07T23:17:05.581Z,28.53
2019-02-07T23:19:32.454Z,28.53
2019-02-07T23:21:59.347Z,26.80
2019-02-07T23:24:26.090Z,29.53
2019-02-07T23:26:52.623Z,27.80
2019-02-07T23:29:19.160Z,27.00
2019-02-07T23:31:45.996Z,28.40
2019-02-07T23:34:12.534Z,27.63
2019-02-07T23:36:39.069Z,29.83
2019-02-07T23:39:05.912Z,28.33
2019-02-07T23:41:32.747Z,29.97
2019-02-07T23:43:59.283Z,27.67
2019-02-07T23:46:26.125Z,27.30
2019-02-07T23:48:52.663Z,26.97
2019-02-07T23:51:19.501Z,27.93
2019-02-07T23:53:46.040Z,28.17
2019-02-07T23:56:12.570Z,29.53
2019-02-07T23:58:39.412Z,26.67
